sensor_id;sensor_type;location;lat;lon;timestamp;P1;durP1;ratioP1;P2;durP2;ratioP2
72060;SDS011;59925;52.136;5.420;2024-03-23T00:55:34;19.27;;;6.20;;
72060;SDS011;59925;52.136;5.420;2024-03-23T00:58:00;15.77;;;5.70;;
72060;SDS011;59925;52.136;5.420;2024-03-23T01:00:25;17.93;;;5.57;;
72060;SDS011;59925;52.136;5.420;2024-03-23T01:02:51;17.90;;;6.07;;
72060;SDS011;59925;52.136;5.420;2024-03-23T01:05:16;17.23;;;6.67;;
72060;SDS011;59925;52.136;5.420;2024-03-23T01:07:42;22.17;;;6.23;;
72060;SDS011;59925;52.136;5.420;2024-03-23T01:10:07;17.47;;;6.03;;
72060;SDS011;59925;52.136;5.420;2024-03-23T01:12:33;17.40;;;6.80;;
72060;SDS011;59925;52.136;5.420;2024-03-23T01:14:59;14.20;;;6.07;;
72060;SDS011;59925;52.136;5.420;2024-03-23T01:17:24;24.87;;;6.60;;
72060;SDS011;59925;52.136;5.420;2024-03-23T01:19:50;17.87;;;5.87;;
72060;SDS011;59925;52.136;5.420;2024-03-23T01:22:15;21.17;;;6.22;;
72060;SDS011;59925;52.136;5.420;2024-03-23T01:24:41;18.00;;;5.23;;
72060;SDS011;59925;52.136;5.420;2024-03-23T01:27:07;16.67;;;5.80;;
72060;SDS011;59925;52.136;5.420;2024-03-23T01:29:33;17.57;;;5.67;;
72060;SDS011;59925;52.136;5.420;2024-03-23T01:31:59;21.55;;;6.50;;
72060;SDS011;59925;52.136;5.420;2024-03-23T01:34:25;16.83;;;5.83;;
72060;SDS011;59925;52.136;5.420;2024-03-23T01:36:50;15.93;;;6.13;;
72060;SDS011;59925;52.136;5.420;2024-03-23T01:39:16;15.60;;;5.20;;
72060;SDS011;59925;52.136;5.420;2024-03-23T01:41:42;20.70;;;6.18;;
72060;SDS011;59925;52.136;5.420;2024-03-23T01:44:08;19.03;;;6.17;;
72060;SDS011;59925;52.136;5.420;2024-03-23T01:46:37;19.30;;;5.75;;
72060;SDS011;59925;52.136;5.420;2024-03-23T01:49:04;23.27;;;6.03;;
72060;SDS011;59925;52.136;5.420;2024-03-23T01:51:30;17.92;;;6.32;;
72060;SDS011;59925;52.136;5.420;2024-03-23T01:53:57;18.40;;;5.70;;
72060;SDS011;59925;52.136;5.420;2024-03-23T01:56:26;15.85;;;5.38;;
72060;SDS011;59925;52.136;5.420;2024-03-23T01:58:51;15.98;;;5.85;;
72060;SDS011;59925;52.136;5.420;2024-03-23T02:01:17;16.93;;;5.43;;
72060;SDS011;59925;52.136;5.420;2024-03-23T02:03:42;12.87;;;4.87;;
72060;SDS011;59925;52.136;5.420;2024-03-23T02:06:08;14.90;;;4.97;;
72060;SDS011;59925;52.136;5.420;2024-03-23T02:08:34;16.17;;;4.70;;
72060;SDS011;59925;52.136;5.420;2024-03-23T02:10:59;18.85;;;6.03;;
72060;SDS011;59925;52.136;5.420;2024-03-23T02:13:25;13.93;;;5.37;;
72060;SDS011;59925;52.136;5.420;2024-03-23T02:15:50;13.43;;;4.97;;
72060;SDS011;59925;52.136;5.420;2024-03-23T02:18:16;19.85;;;6.45;;
72060;SDS011;59925;52.136;5.420;2024-03-23T02:20:41;19.53;;;5.87;;
72060;SDS011;59925;52.136;5.420;2024-03-23T02:23:16;20.40;;;4.87;;
72060;SDS011;59925;52.136;5.420;2024-03-23T02:25:45;14.18;;;5.22;;
72060;SDS011;59925;52.136;5.420;2024-03-23T02:28:11;12.52;;;5.03;;
72060;SDS011;59925;52.136;5.420;2024-03-23T02:30:37;16.03;;;5.43;;
72060;SDS011;59925;52.136;5.420;2024-03-23T02:33:03;14.80;;;5.60;;
72060;SDS011;59925;52.136;5.420;2024-03-23T02:35:29;17.25;;;5.82;;
72060;SDS011;59925;52.136;5.420;2024-03-23T02:37:55;13.90;;;5.38;;
72060;SDS011;59925;52.136;5.420;2024-03-23T02:40:22;15.47;;;5.60;;
72060;SDS011;59925;52.136;5.420;2024-03-23T02:42:49;15.07;;;5.40;;
72060;SDS011;59925;52.136;5.420;2024-03-23T02:45:14;12.48;;;4.97;;
72060;SDS011;59925;52.136;5.420;2024-03-23T02:47:40;18.40;;;5.23;;
72060;SDS011;59925;52.136;5.420;2024-03-23T02:50:06;20.83;;;5.60;;
72060;SDS011;59925;52.136;5.420;2024-03-23T02:52:32;11.67;;;4.53;;
72060;SDS011;59925;52.136;5.420;2024-03-23T02:54:57;17.50;;;5.05;;
72060;SDS011;59925;52.136;5.420;2024-03-23T02:57:23;16.40;;;4.03;;
72060;SDS011;59925;52.136;5.420;2024-03-23T02:59:48;12.88;;;4.10;;
72060;SDS011;59925;52.136;5.420;2024-03-23T03:02:16;11.63;;;3.53;;
72060;SDS011;59925;52.136;5.420;2024-03-23T03:04:41;16.88;;;4.03;;
72060;SDS011;59925;52.136;5.420;2024-03-23T03:07:07;13.50;;;3.73;;
72060;SDS011;59925;52.136;5.420;2024-03-23T03:09:33;16.55;;;3.60;;
72060;SDS011;59925;52.136;5.420;2024-03-23T03:12:01;14.93;;;3.83;;
72060;SDS011;59925;52.136;5.420;2024-03-23T03:14:27;10.23;;;3.80;;
72060;SDS011;59925;52.136;5.420;2024-03-23T03:16:53;14.95;;;4.05;;
72060;SDS011;59925;52.136;5.420;2024-03-23T03:19:19;16.60;;;4.65;;
72060;SDS011;59925;52.136;5.420;2024-03-23T03:21:44;12.10;;;3.60;;
72060;SDS011;59925;52.136;5.420;2024-03-23T03:24:10;15.10;;;3.75;;
72060;SDS011;59925;52.136;5.420;2024-03-23T03:26:36;14.40;;;3.77;;
72060;SDS011;59925;52.136;5.420;2024-03-23T03:29:02;10.38;;;3.28;;
72060;SDS011;59925;52.136;5.420;2024-03-23T03:31:28;9.70;;;3.40;;
72060;SDS011;59925;52.136;5.420;2024-03-23T03:33:53;13.63;;;3.80;;
72060;SDS011;59925;52.136;5.420;2024-03-23T03:36:19;9.67;;;3.67;;
72060;SDS011;59925;52.136;5.420;2024-03-23T03:38:45;16.25;;;4.15;;
72060;SDS011;59925;52.136;5.420;2024-03-23T03:41:10;12.43;;;4.03;;
72060;SDS011;59925;52.136;5.420;2024-03-23T03:43:36;15.77;;;4.30;;
72060;SDS011;59925;52.136;5.420;2024-03-23T03:46:02;12.30;;;3.70;;
72060;SDS011;59925;52.136;5.420;2024-03-23T03:48:28;15.70;;;4.10;;
72060;SDS011;59925;52.136;5.420;2024-03-23T03:50:54;9.18;;;3.83;;
72060;SDS011;59925;52.136;5.420;2024-03-23T03:53:20;14.77;;;3.67;;
72060;SDS011;59925;52.136;5.420;2024-03-23T03:55:45;9.52;;;3.50;;
72060;SDS011;59925;52.136;5.420;2024-03-23T03:58:11;7.37;;;3.47;;
72060;SDS011;59925;52.136;5.420;2024-03-23T04:00:36;13.07;;;3.90;;
72060;SDS011;59925;52.136;5.420;2024-03-23T04:03:02;10.18;;;3.92;;
72060;SDS011;59925;52.136;5.420;2024-03-23T04:05:28;9.60;;;3.63;;
72060;SDS011;59925;52.136;5.420;2024-03-23T04:07:54;10.13;;;3.40;;
72060;SDS011;59925;52.136;5.420;2024-03-23T04:10:19;12.03;;;3.70;;
72060;SDS011;59925;52.136;5.420;2024-03-23T04:12:45;12.95;;;4.30;;
72060;SDS011;59925;52.136;5.420;2024-03-23T04:15:12;10.27;;;3.83;;
72060;SDS011;59925;52.136;5.420;2024-03-23T04:17:38;15.50;;;4.22;;
72060;SDS011;59925;52.136;5.420;2024-03-23T04:20:04;13.57;;;3.70;;
72060;SDS011;59925;52.136;5.420;2024-03-23T04:22:34;16.65;;;3.92;;
72060;SDS011;59925;52.136;5.420;2024-03-23T04:25:00;7.50;;;3.08;;
72060;SDS011;59925;52.136;5.420;2024-03-23T04:27:28;8.90;;;3.30;;
72060;SDS011;59925;52.136;5.420;2024-03-23T04:29:54;12.70;;;3.77;;
72060;SDS011;59925;52.136;5.420;2024-03-23T04:32:19;9.57;;;3.00;;
72060;SDS011;59925;52.136;5.420;2024-03-23T04:34:45;13.43;;;3.87;;
72060;SDS011;59925;52.136;5.420;2024-03-23T04:37:10;12.50;;;3.42;;
72060;SDS011;59925;52.136;5.420;2024-03-23T04:39:36;13.17;;;4.10;;
72060;SDS011;59925;52.136;5.420;2024-03-23T04:42:02;7.95;;;3.53;;
72060;SDS011;59925;52.136;5.420;2024-03-23T04:44:29;10.30;;;3.88;;
72060;SDS011;59925;52.136;5.420;2024-03-23T04:46:56;14.50;;;3.63;;
72060;SDS011;59925;52.136;5.420;2024-03-23T04:49:22;13.75;;;3.63;;
72060;SDS011;59925;52.136;5.420;2024-03-23T04:51:47;12.03;;;3.40;;
72060;SDS011;59925;52.136;5.420;2024-03-23T04:54:13;16.63;;;3.60;;
72060;SDS011;59925;52.136;5.420;2024-03-23T04:56:39;7.78;;;3.55;;
72060;SDS011;59925;52.136;5.420;2024-03-23T04:59:04;6.93;;;3.33;;
72060;SDS011;59925;52.136;5.420;2024-03-23T05:01:30;10.60;;;3.28;;
72060;SDS011;59925;52.136;5.420;2024-03-23T05:03:57;8.73;;;3.55;;
72060;SDS011;59925;52.136;5.420;2024-03-23T05:06:23;12.70;;;2.85;;
72060;SDS011;59925;52.136;5.420;2024-03-23T05:08:49;15.03;;;3.33;;
72060;SDS011;59925;52.136;5.420;2024-03-23T05:11:14;9.40;;;3.15;;
72060;SDS011;59925;52.136;5.420;2024-03-23T05:13:41;12.93;;;2.95;;
72060;SDS011;59925;52.136;5.420;2024-03-23T05:16:07;10.50;;;2.93;;
72060;SDS011;59925;52.136;5.420;2024-03-23T05:18:33;14.48;;;3.33;;
72060;SDS011;59925;52.136;5.420;2024-03-23T05:20:59;11.98;;;2.90;;
72060;SDS011;59925;52.136;5.420;2024-03-23T05:23:25;8.27;;;2.27;;
72060;SDS011;59925;52.136;5.420;2024-03-23T05:25:51;12.77;;;2.47;;
72060;SDS011;59925;52.136;5.420;2024-03-23T05:28:17;10.52;;;2.50;;
72060;SDS011;59925;52.136;5.420;2024-03-23T05:30:43;13.30;;;2.70;;
72060;SDS011;59925;52.136;5.420;2024-03-23T05:33:09;13.20;;;2.65;;
72060;SDS011;59925;52.136;5.420;2024-03-23T05:35:35;9.13;;;2.30;;
72060;SDS011;59925;52.136;5.420;2024-03-23T05:38:00;11.57;;;2.83;;
72060;SDS011;59925;52.136;5.420;2024-03-23T05:40:26;7.40;;;2.03;;
72060;SDS011;59925;52.136;5.420;2024-03-23T05:42:52;7.80;;;2.40;;
72060;SDS011;59925;52.136;5.420;2024-03-23T05:45:21;9.00;;;2.25;;
72060;SDS011;59925;52.136;5.420;2024-03-23T05:47:48;7.17;;;1.90;;
72060;SDS011;59925;52.136;5.420;2024-03-23T05:50:14;8.98;;;2.13;;
72060;SDS011;59925;52.136;5.420;2024-03-23T05:52:39;8.23;;;1.83;;
72060;SDS011;59925;52.136;5.420;2024-03-23T05:55:05;13.30;;;2.27;;
72060;SDS011;59925;52.136;5.420;2024-03-23T05:57:31;6.68;;;1.98;;
72060;SDS011;59925;52.136;5.420;2024-03-23T05:59:57;6.10;;;1.83;;
72060;SDS011;59925;52.136;5.420;2024-03-23T06:02:23;8.88;;;1.90;;
72060;SDS011;59925;52.136;5.420;2024-03-23T06:04:49;6.93;;;1.42;;
72060;SDS011;59925;52.136;5.420;2024-03-23T06:07:15;8.23;;;1.47;;
72060;SDS011;59925;52.136;5.420;2024-03-23T06:09:41;5.57;;;1.05;;
72060;SDS011;59925;52.136;5.420;2024-03-23T06:12:06;8.13;;;1.30;;
72060;SDS011;59925;52.136;5.420;2024-03-23T06:14:32;8.05;;;1.90;;
72060;SDS011;59925;52.136;5.420;2024-03-23T06:16:58;8.45;;;1.65;;
72060;SDS011;59925;52.136;5.420;2024-03-23T06:19:25;4.75;;;1.05;;
72060;SDS011;59925;52.136;5.420;2024-03-23T06:21:54;8.87;;;1.63;;
72060;SDS011;59925;52.136;5.420;2024-03-23T06:24:22;5.70;;;1.10;;
72060;SDS011;59925;52.136;5.420;2024-03-23T06:26:49;6.70;;;0.90;;
72060;SDS011;59925;52.136;5.420;2024-03-23T06:29:15;10.13;;;0.93;;
72060;SDS011;59925;52.136;5.420;2024-03-23T06:31:41;9.38;;;1.63;;
72060;SDS011;59925;52.136;5.420;2024-03-23T06:34:06;7.50;;;0.97;;
72060;SDS011;59925;52.136;5.420;2024-03-23T06:36:32;9.13;;;1.40;;
72060;SDS011;59925;52.136;5.420;2024-03-23T06:38:58;8.00;;;0.95;;
72060;SDS011;59925;52.136;5.420;2024-03-23T06:41:24;6.88;;;1.58;;
72060;SDS011;59925;52.136;5.420;2024-03-23T06:43:50;5.05;;;0.98;;
72060;SDS011;59925;52.136;5.420;2024-03-23T06:46:16;9.93;;;1.33;;
72060;SDS011;59925;52.136;5.420;2024-03-23T06:48:41;7.73;;;0.80;;
72060;SDS011;59925;52.136;5.420;2024-03-23T06:51:07;9.07;;;1.10;;
72060;SDS011;59925;52.136;5.420;2024-03-23T06:53:32;6.07;;;1.15;;
72060;SDS011;59925;52.136;5.420;2024-03-23T06:55:58;8.07;;;1.40;;
72060;SDS011;59925;52.136;5.420;2024-03-23T06:58:24;9.05;;;1.45;;
72060;SDS011;59925;52.136;5.420;2024-03-23T07:00:50;7.50;;;1.20;;
72060;SDS011;59925;52.136;5.420;2024-03-23T07:03:16;10.43;;;1.42;;
72060;SDS011;59925;52.136;5.420;2024-03-23T07:05:42;11.82;;;0.88;;
72060;SDS011;59925;52.136;5.420;2024-03-23T07:08:08;6.93;;;0.90;;
72060;SDS011;59925;52.136;5.420;2024-03-23T07:10:33;5.88;;;1.13;;
72060;SDS011;59925;52.136;5.420;2024-03-23T07:13:00;9.90;;;1.30;;
72060;SDS011;59925;52.136;5.420;2024-03-23T07:15:26;8.60;;;1.70;;
72060;SDS011;59925;52.136;5.420;2024-03-23T07:17:52;8.15;;;1.17;;
72060;SDS011;59925;52.136;5.420;2024-03-23T07:20:17;7.73;;;1.00;;
72060;SDS011;59925;52.136;5.420;2024-03-23T07:22:45;8.77;;;1.27;;
72060;SDS011;59925;52.136;5.420;2024-03-23T07:25:10;6.53;;;1.30;;
72060;SDS011;59925;52.136;5.420;2024-03-23T07:27:36;8.23;;;1.38;;
72060;SDS011;59925;52.136;5.420;2024-03-23T07:30:02;11.30;;;1.73;;
72060;SDS011;59925;52.136;5.420;2024-03-23T07:32:27;6.18;;;1.40;;
72060;SDS011;59925;52.136;5.420;2024-03-23T07:34:53;5.93;;;1.87;;
72060;SDS011;59925;52.136;5.420;2024-03-23T07:37:18;4.53;;;1.40;;
72060;SDS011;59925;52.136;5.420;2024-03-23T07:39:44;8.15;;;1.58;;
72060;SDS011;59925;52.136;5.420;2024-03-23T07:42:09;9.67;;;1.63;;
72060;SDS011;59925;52.136;5.420;2024-03-23T07:44:35;7.33;;;1.30;;
72060;SDS011;59925;52.136;5.420;2024-03-23T07:47:00;6.32;;;1.38;;
72060;SDS011;59925;52.136;5.420;2024-03-23T07:49:26;4.60;;;1.10;;
72060;SDS011;59925;52.136;5.420;2024-03-23T07:51:52;10.07;;;1.25;;
72060;SDS011;59925;52.136;5.420;2024-03-23T07:54:17;8.30;;;1.20;;
72060;SDS011;59925;52.136;5.420;2024-03-23T07:56:43;8.83;;;1.30;;
72060;SDS011;59925;52.136;5.420;2024-03-23T07:59:09;9.70;;;1.45;;
72060;SDS011;59925;52.136;5.420;2024-03-23T08:01:34;7.93;;;1.40;;
72060;SDS011;59925;52.136;5.420;2024-03-23T08:04:00;11.83;;;1.17;;
72060;SDS011;59925;52.136;5.420;2024-03-23T08:06:25;9.47;;;1.43;;
72060;SDS011;59925;52.136;5.420;2024-03-23T08:08:55;6.27;;;1.10;;
72060;SDS011;59925;52.136;5.420;2024-03-23T08:11:28;5.18;;;0.90;;
72060;SDS011;59925;52.136;5.420;2024-03-23T08:13:54;5.65;;;0.93;;
72060;SDS011;59925;52.136;5.420;2024-03-23T08:16:20;4.35;;;0.80;;
72060;SDS011;59925;52.136;5.420;2024-03-23T08:18:46;6.60;;;1.38;;
72060;SDS011;59925;52.136;5.420;2024-03-23T08:21:12;8.00;;;1.00;;
72060;SDS011;59925;52.136;5.420;2024-03-23T08:23:38;4.05;;;0.95;;
72060;SDS011;59925;52.136;5.420;2024-03-23T08:26:08;6.33;;;1.00;;
72060;SDS011;59925;52.136;5.420;2024-03-23T08:28:36;6.67;;;1.00;;
72060;SDS011;59925;52.136;5.420;2024-03-23T08:31:09;7.03;;;0.90;;
72060;SDS011;59925;52.136;5.420;2024-03-23T08:33:36;5.78;;;1.08;;
72060;SDS011;59925;52.136;5.420;2024-03-23T08:36:04;5.80;;;1.00;;
72060;SDS011;59925;52.136;5.420;2024-03-23T08:38:30;2.95;;;0.75;;
72060;SDS011;59925;52.136;5.420;2024-03-23T08:41:03;7.60;;;1.20;;
72060;SDS011;59925;52.136;5.420;2024-03-23T08:43:30;3.45;;;0.60;;
72060;SDS011;59925;52.136;5.420;2024-03-23T08:46:07;8.60;;;0.60;;
72060;SDS011;59925;52.136;5.420;2024-03-23T08:48:35;3.08;;;0.70;;
72060;SDS011;59925;52.136;5.420;2024-03-23T08:51:04;7.50;;;0.73;;
72060;SDS011;59925;52.136;5.420;2024-03-23T08:53:30;11.13;;;1.13;;
72060;SDS011;59925;52.136;5.420;2024-03-23T08:55:56;11.98;;;1.35;;
72060;SDS011;59925;52.136;5.420;2024-03-23T08:58:23;6.30;;;0.80;;
72060;SDS011;59925;52.136;5.420;2024-03-23T09:00:53;7.22;;;0.70;;
72060;SDS011;59925;52.136;5.420;2024-03-23T09:03:22;8.25;;;0.70;;
72060;SDS011;59925;52.136;5.420;2024-03-23T09:05:48;6.57;;;1.10;;
72060;SDS011;59925;52.136;5.420;2024-03-23T09:08:14;7.13;;;0.90;;
72060;SDS011;59925;52.136;5.420;2024-03-23T09:10:40;2.90;;;0.40;;
72060;SDS011;59925;52.136;5.420;2024-03-23T09:13:06;7.35;;;1.17;;
72060;SDS011;59925;52.136;5.420;2024-03-23T09:15:34;4.63;;;0.70;;
72060;SDS011;59925;52.136;5.420;2024-03-23T09:18:00;3.53;;;0.80;;
72060;SDS011;59925;52.136;5.420;2024-03-23T09:20:25;6.30;;;0.60;;
72060;SDS011;59925;52.136;5.420;2024-03-23T09:22:51;4.60;;;0.60;;
72060;SDS011;59925;52.136;5.420;2024-03-23T09:25:16;7.40;;;0.83;;
72060;SDS011;59925;52.136;5.420;2024-03-23T09:27:42;2.63;;;0.40;;
72060;SDS011;59925;52.136;5.420;2024-03-23T09:30:08;5.15;;;0.68;;
72060;SDS011;59925;52.136;5.420;2024-03-23T09:32:35;7.10;;;0.65;;
72060;SDS011;59925;52.136;5.420;2024-03-23T09:35:00;6.83;;;1.50;;
72060;SDS011;59925;52.136;5.420;2024-03-23T09:37:26;4.83;;;0.50;;
72060;SDS011;59925;52.136;5.420;2024-03-23T09:39:51;7.18;;;0.50;;
72060;SDS011;59925;52.136;5.420;2024-03-23T09:42:17;5.03;;;0.57;;
72060;SDS011;59925;52.136;5.420;2024-03-23T09:44:42;5.20;;;0.77;;
72060;SDS011;59925;52.136;5.420;2024-03-23T09:47:09;3.90;;;0.77;;
72060;SDS011;59925;52.136;5.420;2024-03-23T09:49:35;3.47;;;0.68;;
72060;SDS011;59925;52.136;5.420;2024-03-23T09:52:02;1.90;;;0.40;;
72060;SDS011;59925;52.136;5.420;2024-03-23T09:54:28;5.30;;;0.73;;
72060;SDS011;59925;52.136;5.420;2024-03-23T09:56:53;8.25;;;0.80;;
72060;SDS011;59925;52.136;5.420;2024-03-23T09:59:19;5.47;;;0.90;;
72060;SDS011;59925;52.136;5.420;2024-03-23T10:01:45;6.37;;;0.90;;
72060;SDS011;59925;52.136;5.420;2024-03-23T10:04:10;5.65;;;0.82;;
72060;SDS011;59925;52.136;5.420;2024-03-23T10:06:36;6.88;;;1.10;;
72060;SDS011;59925;52.136;5.420;2024-03-23T10:09:02;5.47;;;0.80;;
72060;SDS011;59925;52.136;5.420;2024-03-23T10:11:43;6.50;;;0.70;;
72060;SDS011;59925;52.136;5.420;2024-03-23T10:14:20;6.78;;;1.02;;
72060;SDS011;59925;52.136;5.420;2024-03-23T10:16:54;3.42;;;0.70;;
72060;SDS011;59925;52.136;5.420;2024-03-23T10:19:30;10.90;;;1.42;;
72060;SDS011;59925;52.136;5.420;2024-03-23T10:21:56;6.30;;;0.90;;
72060;SDS011;59925;52.136;5.420;2024-03-23T10:24:22;6.25;;;0.77;;
72060;SDS011;59925;52.136;5.420;2024-03-23T10:26:55;5.15;;;0.45;;
72060;SDS011;59925;52.136;5.420;2024-03-23T10:29:21;5.33;;;0.60;;
72060;SDS011;59925;52.136;5.420;2024-03-23T10:31:47;8.00;;;0.70;;
72060;SDS011;59925;52.136;5.420;2024-03-23T10:34:12;6.90;;;0.80;;
72060;SDS011;59925;52.136;5.420;2024-03-23T10:36:38;6.63;;;0.63;;
72060;SDS011;59925;52.136;5.420;2024-03-23T10:39:06;6.78;;;0.77;;
72060;SDS011;59925;52.136;5.420;2024-03-23T10:41:32;5.88;;;0.77;;
72060;SDS011;59925;52.136;5.420;2024-03-23T10:43:59;4.18;;;0.60;;
72060;SDS011;59925;52.136;5.420;2024-03-23T10:46:27;6.65;;;0.80;;
72060;SDS011;59925;52.136;5.420;2024-03-23T10:48:52;6.83;;;0.67;;
72060;SDS011;59925;52.136;5.420;2024-03-23T10:51:18;7.00;;;0.83;;
72060;SDS011;59925;52.136;5.420;2024-03-23T10:53:44;5.93;;;0.93;;
72060;SDS011;59925;52.136;5.420;2024-03-23T10:56:11;10.65;;;1.25;;
72060;SDS011;59925;52.136;5.420;2024-03-23T10:58:40;8.23;;;1.23;;
72060;SDS011;59925;52.136;5.420;2024-03-23T11:01:12;4.07;;;0.70;;
72060;SDS011;59925;52.136;5.420;2024-03-23T11:03:39;5.18;;;0.57;;
72060;SDS011;59925;52.136;5.420;2024-03-23T11:06:09;3.67;;;0.50;;
72060;SDS011;59925;52.136;5.420;2024-03-23T11:08:39;8.50;;;0.93;;
72060;SDS011;59925;52.136;5.420;2024-03-23T11:11:19;4.53;;;0.75;;
72060;SDS011;59925;52.136;5.420;2024-03-23T11:13:49;4.78;;;0.63;;
72060;SDS011;59925;52.136;5.420;2024-03-23T11:16:25;7.13;;;0.60;;
72060;SDS011;59925;52.136;5.420;2024-03-23T11:22:03;6.53;;;0.77;;
72060;SDS011;59925;52.136;5.420;2024-03-23T11:24:33;4.18;;;0.80;;
72060;SDS011;59925;52.136;5.420;2024-03-23T11:26:59;6.90;;;0.88;;
72060;SDS011;59925;52.136;5.420;2024-03-23T11:29:27;6.13;;;0.57;;
72060;SDS011;59925;52.136;5.420;2024-03-23T11:31:52;5.00;;;0.60;;
72060;SDS011;59925;52.136;5.420;2024-03-23T11:34:22;4.90;;;0.50;;
72060;SDS011;59925;52.136;5.420;2024-03-23T11:36:48;4.57;;;0.50;;
72060;SDS011;59925;52.136;5.420;2024-03-23T11:41:51;6.13;;;0.70;;
72060;SDS011;59925;52.136;5.420;2024-03-23T11:44:18;8.45;;;0.93;;
72060;SDS011;59925;52.136;5.420;2024-03-23T11:46:43;9.38;;;1.05;;
72060;SDS011;59925;52.136;5.420;2024-03-23T11:49:28;3.73;;;0.57;;
72060;SDS011;59925;52.136;5.420;2024-03-23T11:51:55;4.65;;;0.65;;
72060;SDS011;59925;52.136;5.420;2024-03-23T11:54:22;3.90;;;0.88;;
72060;SDS011;59925;52.136;5.420;2024-03-23T11:56:58;4.33;;;0.93;;
72060;SDS011;59925;52.136;5.420;2024-03-23T11:59:35;5.05;;;0.70;;
72060;SDS011;59925;52.136;5.420;2024-03-23T12:02:09;4.57;;;0.75;;
72060;SDS011;59925;52.136;5.420;2024-03-23T12:04:37;19.58;;;1.42;;
72060;SDS011;59925;52.136;5.420;2024-03-23T12:09:39;5.60;;;0.57;;
72060;SDS011;59925;52.136;5.420;2024-03-23T12:12:07;8.75;;;0.95;;
72060;SDS011;59925;52.136;5.420;2024-03-23T12:14:32;5.80;;;0.70;;
72060;SDS011;59925;52.136;5.420;2024-03-23T12:17:07;7.37;;;0.90;;
72060;SDS011;59925;52.136;5.420;2024-03-23T12:19:36;8.15;;;1.00;;
72060;SDS011;59925;52.136;5.420;2024-03-23T12:22:02;5.70;;;0.70;;
72060;SDS011;59925;52.136;5.420;2024-03-23T12:24:29;8.00;;;0.88;;
72060;SDS011;59925;52.136;5.420;2024-03-23T12:26:55;8.57;;;0.90;;
72060;SDS011;59925;52.136;5.420;2024-03-23T12:29:20;4.30;;;0.85;;
72060;SDS011;59925;52.136;5.420;2024-03-23T12:31:46;3.80;;;0.80;;
72060;SDS011;59925;52.136;5.420;2024-03-23T12:34:11;3.97;;;0.70;;
72060;SDS011;59925;52.136;5.420;2024-03-23T12:36:37;2.65;;;0.50;;
72060;SDS011;59925;52.136;5.420;2024-03-23T12:39:02;4.23;;;0.70;;
72060;SDS011;59925;52.136;5.420;2024-03-23T12:41:28;8.40;;;0.80;;
72060;SDS011;59925;52.136;5.420;2024-03-23T12:43:53;2.33;;;0.43;;
72060;SDS011;59925;52.136;5.420;2024-03-23T12:46:19;6.72;;;0.63;;
72060;SDS011;59925;52.136;5.420;2024-03-23T12:48:44;5.50;;;0.80;;
72060;SDS011;59925;52.136;5.420;2024-03-23T12:51:10;6.22;;;0.82;;
72060;SDS011;59925;52.136;5.420;2024-03-23T12:53:35;4.43;;;0.57;;
72060;SDS011;59925;52.136;5.420;2024-03-23T12:56:01;4.97;;;0.63;;
72060;SDS011;59925;52.136;5.420;2024-03-23T12:58:27;4.30;;;0.90;;
72060;SDS011;59925;52.136;5.420;2024-03-23T13:00:52;6.77;;;0.60;;
72060;SDS011;59925;52.136;5.420;2024-03-23T13:03:18;3.53;;;0.60;;
72060;SDS011;59925;52.136;5.420;2024-03-23T13:05:43;4.97;;;0.70;;
72060;SDS011;59925;52.136;5.420;2024-03-23T13:08:08;7.60;;;1.10;;
72060;SDS011;59925;52.136;5.420;2024-03-23T13:10:34;6.33;;;0.90;;
72060;SDS011;59925;52.136;5.420;2024-03-23T13:12:59;6.33;;;0.50;;
72060;SDS011;59925;52.136;5.420;2024-03-23T13:15:25;3.22;;;0.55;;
72060;SDS011;59925;52.136;5.420;2024-03-23T13:17:50;5.63;;;0.70;;
72060;SDS011;59925;52.136;5.420;2024-03-23T13:20:17;4.90;;;1.00;;
72060;SDS011;59925;52.136;5.420;2024-03-23T13:22:43;7.23;;;1.23;;
72060;SDS011;59925;52.136;5.420;2024-03-23T13:25:08;8.05;;;0.98;;
72060;SDS011;59925;52.136;5.420;2024-03-23T13:27:34;4.80;;;0.57;;
72060;SDS011;59925;52.136;5.420;2024-03-23T13:29:59;3.17;;;0.40;;
72060;SDS011;59925;52.136;5.420;2024-03-23T13:32:25;1.33;;;0.20;;
72060;SDS011;59925;52.136;5.420;2024-03-23T13:34:50;2.13;;;0.20;;
72060;SDS011;59925;52.136;5.420;2024-03-23T13:37:16;1.87;;;0.20;;
72060;SDS011;59925;52.136;5.420;2024-03-23T13:39:41;1.48;;;0.20;;
72060;SDS011;59925;52.136;5.420;2024-03-23T13:42:07;0.80;;;0.20;;
72060;SDS011;59925;52.136;5.420;2024-03-23T13:44:34;1.27;;;0.20;;
72060;SDS011;59925;52.136;5.420;2024-03-23T13:47:00;1.67;;;0.20;;
72060;SDS011;59925;52.136;5.420;2024-03-23T13:49:26;2.63;;;0.30;;
72060;SDS011;59925;52.136;5.420;2024-03-23T13:51:56;1.58;;;0.40;;
72060;SDS011;59925;52.136;5.420;2024-03-23T13:54:28;2.40;;;0.40;;
72060;SDS011;59925;52.136;5.420;2024-03-23T13:56:54;3.33;;;0.50;;
72060;SDS011;59925;52.136;5.420;2024-03-23T13:59:21;1.70;;;0.30;;
72060;SDS011;59925;52.136;5.420;2024-03-23T14:01:48;2.87;;;0.70;;
72060;SDS011;59925;52.136;5.420;2024-03-23T14:04:14;5.43;;;0.50;;
72060;SDS011;59925;52.136;5.420;2024-03-23T14:06:44;4.63;;;0.70;;
72060;SDS011;59925;52.136;5.420;2024-03-23T14:09:13;5.75;;;0.57;;
72060;SDS011;59925;52.136;5.420;2024-03-23T14:11:39;5.40;;;0.60;;
72060;SDS011;59925;52.136;5.420;2024-03-23T14:14:06;6.40;;;0.80;;
72060;SDS011;59925;52.136;5.420;2024-03-23T14:16:33;6.15;;;0.77;;
72060;SDS011;59925;52.136;5.420;2024-03-23T14:18:59;5.53;;;0.77;;
72060;SDS011;59925;52.136;5.420;2024-03-23T14:21:24;4.63;;;0.65;;
72060;SDS011;59925;52.136;5.420;2024-03-23T14:23:50;4.80;;;0.43;;
72060;SDS011;59925;52.136;5.420;2024-03-23T14:26:16;10.43;;;0.70;;
72060;SDS011;59925;52.136;5.420;2024-03-23T14:28:41;3.75;;;0.63;;
72060;SDS011;59925;52.136;5.420;2024-03-23T14:31:07;6.03;;;0.90;;
72060;SDS011;59925;52.136;5.420;2024-03-23T14:33:39;4.85;;;0.73;;
72060;SDS011;59925;52.136;5.420;2024-03-23T14:36:23;4.90;;;0.63;;
72060;SDS011;59925;52.136;5.420;2024-03-23T14:38:50;6.53;;;0.85;;
72060;SDS011;59925;52.136;5.420;2024-03-23T14:41:15;5.33;;;0.97;;
72060;SDS011;59925;52.136;5.420;2024-03-23T14:43:41;5.13;;;0.60;;
72060;SDS011;59925;52.136;5.420;2024-03-23T14:46:09;7.15;;;0.57;;
72060;SDS011;59925;52.136;5.420;2024-03-23T14:48:40;6.45;;;0.82;;
72060;SDS011;59925;52.136;5.420;2024-03-23T14:51:06;7.03;;;0.60;;
72060;SDS011;59925;52.136;5.420;2024-03-23T14:53:37;3.92;;;0.50;;
72060;SDS011;59925;52.136;5.420;2024-03-23T14:56:05;4.10;;;0.53;;
72060;SDS011;59925;52.136;5.420;2024-03-23T14:58:31;4.53;;;0.30;;
72060;SDS011;59925;52.136;5.420;2024-03-23T15:01:02;4.30;;;0.60;;
72060;SDS011;59925;52.136;5.420;2024-03-23T15:03:28;7.07;;;0.70;;
72060;SDS011;59925;52.136;5.420;2024-03-23T15:05:55;4.13;;;0.50;;
72060;SDS011;59925;52.136;5.420;2024-03-23T15:08:21;5.63;;;0.60;;
72060;SDS011;59925;52.136;5.420;2024-03-23T15:10:47;3.30;;;0.55;;
72060;SDS011;59925;52.136;5.420;2024-03-23T15:13:13;4.13;;;0.55;;
72060;SDS011;59925;52.136;5.420;2024-03-23T15:15:43;4.83;;;0.50;;
72060;SDS011;59925;52.136;5.420;2024-03-23T15:18:13;6.85;;;0.70;;
72060;SDS011;59925;52.136;5.420;2024-03-23T15:20:53;5.97;;;0.50;;
72060;SDS011;59925;52.136;5.420;2024-03-23T15:23:22;2.88;;;0.40;;
72060;SDS011;59925;52.136;5.420;2024-03-23T15:25:57;5.68;;;0.50;;
72060;SDS011;59925;52.136;5.420;2024-03-23T15:28:24;5.23;;;0.53;;
72060;SDS011;59925;52.136;5.420;2024-03-23T15:30:52;5.20;;;0.52;;
72060;SDS011;59925;52.136;5.420;2024-03-23T15:33:18;2.23;;;0.40;;
72060;SDS011;59925;52.136;5.420;2024-03-23T15:35:44;4.57;;;0.80;;
72060;SDS011;59925;52.136;5.420;2024-03-23T15:38:10;4.07;;;0.80;;
72060;SDS011;59925;52.136;5.420;2024-03-23T15:40:35;4.70;;;0.63;;
72060;SDS011;59925;52.136;5.420;2024-03-23T15:43:01;2.58;;;0.85;;